Brantford, Canada
Current Conditions -  °F | °C
As of 11:00 AM on Friday 31 Oct 2014 (Local Time) from CYHM Reporting Station
Rain Showers Rain Showers  
Wind Chill: 39°   Ceiling: 1700
Heat Index: 43°   Visibility: 8mi
Dew Point: 41°   Wind: 7mph
Humidity: 93%   Direction: 60°ENE
Pressure: 29.92"   Gusts: NA
Location:  43.14°N, 80.26°W
Report Text: CYHM 311500Z 06006KT 8SM -SHRA FEW009 BKN017 OVC026 06/05 A2992 RMK SF2SC4SC2 SLP138
Loading
Personal Weather Stations






























Interactive Weather Map
Tropical Storm Tracking
New forecast layout! Learn more

10-Day Weather Forecast

Advertisements
Track Severe Weather on mobile